Time;durP1;ratioP1;P1;durP2;ratioP2;P2;SDS_P1;SDS_P2;PMS_P1;PMS_P2;Temp;Humidity;BMP_temperature;BMP_pressure;BME280_temperature;BME280_humidity;BME280_pressure;Samples;Min_cycle;Max_cycle;Signal;HPM_P1;HPM_P2
2022/10/11 00:00:37;;;;;;;11.23;5.10;;;11.30;99.90;;;;;;5008136;28;20231;-72
2022/10/11 00:03:05;;;;;;;9.05;4.60;;;11.40;99.90;;;;;;5007949;28;20220;-73
2022/10/11 00:05:32;;;;;;;9.70;4.47;;;11.30;99.90;;;;;;5009712;28;20562;-72
2022/10/11 00:08:00;;;;;;;10.00;4.57;;;11.30;99.90;;;;;;5001892;28;20209;-73
2022/10/11 00:10:27;;;;;;;9.75;4.53;;;11.10;99.90;;;;;;4991082;28;20204;-72
2022/10/11 00:12:54;;;;;;;10.37;4.63;;;11.00;99.90;;;;;;4989444;28;20229;-72
2022/10/11 00:15:22;;;;;;;10.40;5.00;;;11.20;99.90;;;;;;4997062;28;20204;-72
2022/10/11 00:17:51;;;;;;;11.43;4.83;;;11.30;99.90;;;;;;5008262;28;20573;-72
2022/10/11 00:20:19;;;;;;;9.50;4.77;;;11.20;99.90;;;;;;5006019;28;20232;-72
2022/10/11 00:22:48;;;;;;;11.67;4.87;;;11.30;99.90;;;;;;5005033;28;20227;-73
2022/10/11 00:25:16;;;;;;;12.63;5.25;;;11.20;99.90;;;;;;5006160;28;20545;-72
2022/10/11 00:27:44;;;;;;;9.20;5.03;;;11.10;99.90;;;;;;5009183;28;20205;-73
2022/10/11 00:30:12;;;;;;;12.45;5.32;;;11.00;99.90;;;;;;4992999;28;20204;-73
2022/10/11 00:32:40;;;;;;;11.68;5.50;;;11.00;99.90;;;;;;4993293;28;20590;-72
2022/10/11 00:35:09;;;;;;;9.18;4.60;;;11.00;99.90;;;;;;5006052;28;20205;-72
2022/10/11 00:37:38;;;;;;;10.80;4.70;;;10.90;99.90;;;;;;5003544;28;20193;-72
2022/10/11 00:40:08;;;;;;;10.52;4.97;;;11.00;99.90;;;;;;4993764;28;20197;-72
2022/10/11 00:42:36;;;;;;;12.88;5.10;;;11.10;99.90;;;;;;4994558;28;20220;-72
2022/10/11 00:45:36;;;;;;;8.32;4.78;;;11.20;99.90;;;;;;4992842;28;20204;-72
2022/10/11 00:48:10;;;;;;;14.05;4.68;;;11.30;99.90;;;;;;4949889;28;20215;-72
2022/10/11 00:50:39;;;;;;;7.05;5.13;;;11.40;99.90;;;;;;5004040;28;20200;-72
2022/10/11 00:53:10;;;;;;;11.43;3.78;;;11.20;99.90;;;;;;4988824;28;20220;-72
2022/10/11 00:55:42;;;;;;;12.50;4.85;;;11.20;99.90;;;;;;4993263;28;20207;-72
2022/10/11 00:58:10;;;;;;;9.57;5.35;;;11.20;99.90;;;;;;5008231;28;20201;-73
2022/10/11 01:00:38;;;;;;;15.45;4.93;;;11.20;99.90;;;;;;5007921;28;20224;-72
2022/10/11 01:03:06;;;;;;;11.63;5.03;;;11.30;99.90;;;;;;5007880;28;20227;-72
2022/10/11 01:05:38;;;;;;;8.68;4.38;;;11.40;99.90;;;;;;5004999;28;20681;-72
2022/10/11 01:08:08;;;;;;;12.97;4.40;;;11.40;99.90;;;;;;4994556;28;20696;-72
2022/10/11 01:10:36;;;;;;;12.57;5.13;;;11.40;99.90;;;;;;5005016;28;20185;-73
2022/10/11 01:13:12;;;;;;;13.67;4.73;;;11.30;99.90;;;;;;5002347;28;20224;-72
2022/10/11 01:15:45;;;;;;;9.32;4.50;;;11.20;99.90;;;;;;4996241;28;20562;-73
2022/10/11 01:18:20;;;;;;;10.40;4.03;;;11.20;99.90;;;;;;5009148;28;20231;-72
2022/10/11 01:21:00;;;;;;;11.80;4.83;;;11.10;99.90;;;;;;4983362;28;20212;-72
2022/10/11 01:23:53;;;;;;;8.83;4.57;;;11.00;99.90;;;;;;4991951;28;20220;-72
2022/10/11 01:27:15;;;;;;;12.53;5.70;;;10.80;99.90;;;;;;5000853;28;20663;-72
2022/10/11 01:29:50;;;;;;;14.10;6.33;;;11.00;99.90;;;;;;4952674;28;20215;-72
2022/10/11 01:32:23;;;;;;;10.73;5.63;;;10.80;99.90;;;;;;4992999;28;20227;-72
2022/10/11 01:34:57;;;;;;;11.57;5.30;;;10.70;99.90;;;;;;5008702;28;20207;-72
2022/10/11 01:37:31;;;;;;;12.57;6.10;;;10.70;99.90;;;;;;4998986;28;20211;-72
2022/10/11 01:40:04;;;;;;;14.13;5.80;;;10.70;99.90;;;;;;4987311;28;20208;-72
2022/10/11 01:42:32;;;;;;;10.67;5.67;;;10.70;99.90;;;;;;5006507;28;20228;-72
2022/10/11 01:45:00;;;;;;;12.83;5.43;;;10.60;99.90;;;;;;4993165;28;20192;-72
2022/10/11 01:47:29;;;;;;;14.63;6.00;;;10.70;99.90;;;;;;5007141;28;20203;-72
2022/10/11 01:49:57;;;;;;;15.80;6.13;;;10.80;99.90;;;;;;5003509;28;20209;-72
2022/10/11 01:52:28;;;;;;;13.33;6.40;;;10.80;99.90;;;;;;4997461;28;20234;-72
2022/10/11 01:55:17;;;;;;;13.17;5.57;;;10.80;99.90;;;;;;4994114;28;20204;-72
2022/10/11 01:58:02;;;;;;;11.93;6.40;;;10.80;99.90;;;;;;5006744;28;20220;-72
2022/10/11 02:00:33;;;;;;;12.30;5.90;;;10.90;99.90;;;;;;4993165;28;20195;-72
2022/10/11 02:03:19;;;;;;;11.47;5.70;;;10.90;99.90;;;;;;4995137;28;20231;-72
2022/10/11 02:05:51;;;;;;;9.47;6.50;;;11.00;99.90;;;;;;5003707;28;20201;-73
2022/10/11 02:08:26;;;;;;;14.90;6.50;;;11.00;99.90;;;;;;5008803;28;20216;-73
2022/10/11 02:11:00;;;;;;;12.60;5.80;;;10.90;99.90;;;;;;4998481;28;20545;-72
2022/10/11 02:13:34;;;;;;;11.47;6.67;;;10.80;99.90;;;;;;4991259;28;20224;-72
2022/10/11 02:16:04;;;;;;;13.60;6.87;;;10.80;99.90;;;;;;5010632;28;20208;-72
2022/10/11 02:18:37;;;;;;;11.33;5.77;;;10.60;99.90;;;;;;4994442;28;20188;-72
2022/10/11 02:21:08;;;;;;;11.47;5.77;;;10.60;99.90;;;;;;5012384;28;20223;-72
2022/10/11 02:23:40;;;;;;;12.40;5.97;;;10.70;99.90;;;;;;4997324;28;20216;-72
2022/10/11 02:26:10;;;;;;;11.17;6.37;;;10.60;99.90;;;;;;4998415;28;20199;-72
2022/10/11 02:28:40;;;;;;;11.10;5.67;;;10.50;99.90;;;;;;5009893;28;20204;-73
2022/10/11 02:31:09;;;;;;;14.53;6.30;;;10.50;99.90;;;;;;4996080;28;20200;-72
2022/10/11 02:33:43;;;;;;;13.83;7.07;;;10.50;99.90;;;;;;5016813;22;20217;-79
2022/10/11 02:36:16;;;;;;;10.87;6.27;;;10.40;99.90;;;;;;4989739;28;20556;-79
2022/10/11 02:38:48;;;;;;;11.70;7.07;;;10.50;99.90;;;;;;4990172;28;20566;-78
2022/10/11 02:41:23;;;;;;;13.50;6.87;;;10.40;99.90;;;;;;4971818;28;20185;-79
2022/10/11 02:43:56;;;;;;;12.70;6.80;;;10.50;99.90;;;;;;4987672;28;20235;-79
2022/10/11 02:46:28;;;;;;;14.43;6.23;;;10.40;99.90;;;;;;4984730;28;20198;-79
2022/10/11 02:48:57;;;;;;;17.43;6.57;;;10.30;99.90;;;;;;4971258;28;20209;-79
2022/10/11 02:51:26;;;;;;;13.70;6.20;;;10.40;99.90;;;;;;4989647;28;20216;-79
2022/10/11 02:53:53;;;;;;;16.07;7.03;;;10.30;99.90;;;;;;4972490;28;20726;-79
2022/10/11 02:56:21;;;;;;;12.80;6.73;;;10.40;99.90;;;;;;4970933;28;20206;-78
2022/10/11 02:58:48;;;;;;;13.10;6.83;;;10.40;99.90;;;;;;4974486;28;20216;-79
2022/10/11 03:01:16;;;;;;;15.47;6.30;;;10.50;99.90;;;;;;4987769;28;20710;-79
2022/10/11 03:03:43;;;;;;;14.13;6.87;;;10.60;99.90;;;;;;4984874;28;20232;-79
2022/10/11 03:06:12;;;;;;;15.93;7.10;;;10.70;99.90;;;;;;4983862;28;20204;-79
2022/10/11 03:08:45;;;;;;;16.87;7.43;;;10.70;99.90;;;;;;4970007;28;20197;-78
2022/10/11 03:11:13;;;;;;;16.00;7.53;;;10.60;99.90;;;;;;4985983;28;20206;-79
2022/10/11 03:13:40;;;;;;;11.40;6.90;;;10.30;99.90;;;;;;4984722;28;20229;-79
2022/10/11 03:16:08;;;;;;;14.37;6.70;;;10.40;99.90;;;;;;4975822;28;20205;-78
2022/10/11 03:18:35;;;;;;;12.47;7.33;;;10.40;99.90;;;;;;4988347;28;20205;-78
2022/10/11 03:21:03;;;;;;;17.30;8.20;;;10.20;99.90;;;;;;4974245;28;20204;-78
2022/10/11 03:23:32;;;;;;;17.07;8.27;;;10.20;99.90;;;;;;4973433;28;20228;-79
2022/10/11 03:25:59;;;;;;;13.97;8.17;;;10.20;99.90;;;;;;4988045;28;20213;-78
2022/10/11 03:28:27;;;;;;;16.67;8.43;;;10.30;99.90;;;;;;4975085;28;20212;-78
2022/10/11 03:30:54;;;;;;;18.53;9.33;;;10.30;99.90;;;;;;4980803;28;20204;-78
2022/10/11 03:33:22;;;;;;;16.37;10.20;;;10.30;99.90;;;;;;4998251;28;20225;-78
2022/10/11 03:35:49;;;;;;;18.70;10.67;;;10.30;99.90;;;;;;4970932;28;20201;-79
2022/10/11 03:38:18;;;;;;;20.83;11.07;;;10.40;99.90;;;;;;4973512;28;20213;-79
2022/10/11 03:40:47;;;;;;;20.80;11.90;;;10.30;99.90;;;;;;4986061;28;20213;-79
2022/10/11 03:43:15;;;;;;;21.60;14.10;;;10.30;99.90;;;;;;4990239;28;20228;-78
2022/10/11 03:45:42;;;;;;;23.80;14.10;;;10.00;99.90;;;;;;4998219;28;20213;-78
2022/10/11 03:48:10;;;;;;;23.30;13.83;;;10.00;99.90;;;;;;4978309;28;20216;-78
2022/10/11 03:50:38;;;;;;;19.27;12.37;;;10.00;99.90;;;;;;4979239;28;20197;-78
2022/10/11 03:53:08;;;;;;;17.53;10.40;;;10.00;99.90;;;;;;4988268;28;20228;-79
2022/10/11 03:55:38;;;;;;;15.27;9.90;;;10.00;99.90;;;;;;4984349;28;20209;-79
2022/10/11 03:58:08;;;;;;;17.17;11.17;;;10.00;99.90;;;;;;4989741;28;20208;-78
2022/10/11 04:00:36;;;;;;;20.63;9.80;;;10.10;99.90;;;;;;4979276;28;20192;-78
2022/10/11 04:03:03;;;;;;;22.40;10.57;;;10.30;99.90;;;;;;4995977;28;20229;-79
2022/10/11 04:05:31;;;;;;;19.93;11.67;;;10.40;99.90;;;;;;4984979;28;20760;-79
2022/10/11 04:07:58;;;;;;;16.93;10.67;;;10.50;99.90;;;;;;4988561;28;20201;-78
2022/10/11 04:10:26;;;;;;;19.50;10.53;;;10.40;99.90;;;;;;4990236;28;20200;-79
2022/10/11 04:12:53;;;;;;;16.27;10.47;;;10.30;99.90;;;;;;4987386;28;20225;-78
2022/10/11 04:15:22;;;;;;;18.60;10.93;;;10.20;99.90;;;;;;4974777;28;20200;-78
2022/10/11 04:17:49;;;;;;;19.47;12.27;;;10.00;99.90;;;;;;4980730;28;20197;-78
2022/10/11 04:20:17;;;;;;;21.93;12.87;;;9.90;99.90;;;;;;4974353;28;20201;-79
2022/10/11 04:22:44;;;;;;;17.87;11.13;;;10.00;99.90;;;;;;4988233;28;20237;-78
2022/10/11 04:25:12;;;;;;;22.60;12.40;;;10.00;99.90;;;;;;4984719;28;20201;-78
2022/10/11 04:27:40;;;;;;;17.93;10.97;;;10.00;99.90;;;;;;4971421;28;20654;-78
2022/10/11 04:30:09;;;;;;;19.40;10.37;;;10.00;99.90;;;;;;4993794;28;20212;-79
2022/10/11 04:32:37;;;;;;;18.87;11.07;;;10.00;99.90;;;;;;4987722;28;20213;-79
2022/10/11 04:35:06;;;;;;;15.90;11.07;;;10.10;99.90;;;;;;4989615;28;20219;-80
2022/10/11 04:37:33;;;;;;;20.87;11.10;;;10.00;99.90;;;;;;4966673;28;20201;-78
2022/10/11 04:40:01;;;;;;;14.63;10.47;;;10.00;99.90;;;;;;4981353;28;20219;-78
2022/10/11 04:42:28;;;;;;;14.87;9.67;;;9.90;99.90;;;;;;4995239;28;20228;-78
2022/10/11 04:44:56;;;;;;;15.57;9.83;;;9.80;99.90;;;;;;4966914;28;20207;-78
2022/10/11 04:47:23;;;;;;;15.20;9.30;;;9.80;99.90;;;;;;4974077;28;20193;-79
2022/10/11 04:49:52;;;;;;;13.27;8.83;;;9.80;99.90;;;;;;4988193;28;20205;-78
2022/10/11 04:52:19;;;;;;;14.80;9.87;;;9.80;99.90;;;;;;4988212;28;20205;-80
2022/10/11 04:54:47;;;;;;;15.80;9.40;;;9.80;99.90;;;;;;4986221;28;20201;-78
2022/10/11 04:57:15;;;;;;;12.43;8.47;;;9.80;99.90;;;;;;4989306;28;20224;-79
2022/10/11 04:59:42;;;;;;;13.43;8.43;;;9.80;99.90;;;;;;4988092;28;20192;-79
2022/10/11 05:02:10;;;;;;;13.30;8.80;;;9.80;99.90;;;;;;4997883;28;20208;-79
2022/10/11 05:04:39;;;;;;;16.80;9.17;;;9.90;99.90;;;;;;4972926;28;20200;-78
2022/10/11 05:07:17;;;;;;;14.00;9.30;;;9.90;99.90;;;;;;4977198;28;20554;-78
2022/10/11 05:09:44;;;;;;;13.03;8.40;;;9.80;99.90;;;;;;4980932;28;20212;-79
2022/10/11 05:12:12;;;;;;;13.30;8.30;;;9.70;99.90;;;;;;4970465;28;20207;-79
2022/10/11 05:15:36;;;;;;;12.50;8.50;;;9.50;99.90;;;;;;4980268;28;20208;-79
2022/10/11 05:18:08;;;;;;;15.07;8.90;;;9.40;99.90;;;;;;4943586;28;20201;-79
2022/10/11 05:20:45;;;;;;;18.47;10.50;;;9.20;99.90;;;;;;4984728;28;20562;-79
2022/10/11 05:23:19;;;;;;;16.40;9.80;;;9.40;99.90;;;;;;4969325;28;20283;-79
2022/10/11 05:25:48;;;;;;;12.90;8.93;;;9.50;99.90;;;;;;4976369;28;20197;-79
2022/10/11 05:28:18;;;;;;;13.30;9.60;;;9.50;99.90;;;;;;4988094;28;20197;-80
2022/10/11 05:30:53;;;;;;;20.63;10.73;;;9.60;99.90;;;;;;4988090;28;20205;-80
2022/10/11 05:33:37;;;;;;;14.30;9.57;;;9.50;99.90;;;;;;4986965;28;20239;-80
2022/10/11 05:36:16;;;;;;;13.20;9.43;;;9.60;99.90;;;;;;4988843;28;20213;-79
2022/10/11 05:38:53;;;;;;;15.67;9.07;;;9.50;99.90;;;;;;4988949;28;20204;-79
2022/10/11 05:41:24;;;;;;;10.87;8.13;;;9.40;99.90;;;;;;4987225;28;20205;-80
2022/10/11 05:44:07;;;;;;;11.80;8.13;;;9.20;99.90;;;;;;4987384;28;20713;-80
2022/10/11 05:46:35;;;;;;;15.60;10.23;;;9.20;99.90;;;;;;4963397;28;20201;-80
2022/10/11 05:49:03;;;;;;;16.90;10.37;;;9.20;99.90;;;;;;4969350;28;20570;-81
2022/10/11 05:51:31;;;;;;;14.43;9.87;;;9.50;99.90;;;;;;4964876;28;20205;-80
2022/10/11 05:53:58;;;;;;;20.00;10.77;;;9.60;99.90;;;;;;4964957;28;20217;-80
2022/10/11 05:56:26;;;;;;;15.73;10.00;;;9.50;99.90;;;;;;4987994;28;20262;-80
2022/10/11 05:58:54;;;;;;;13.57;8.60;;;9.40;99.90;;;;;;4984984;28;20213;-79
2022/10/11 06:01:24;;;;;;;14.13;8.70;;;9.20;99.90;;;;;;4970724;28;20189;-77
2022/10/11 06:03:51;;;;;;;13.33;8.40;;;9.10;99.90;;;;;;4984940;28;20221;-80
2022/10/11 06:06:23;;;;;;;9.23;6.87;;;9.10;99.90;;;;;;4982530;28;20555;-80
2022/10/11 06:08:51;;;;;;;8.60;6.57;;;9.00;99.90;;;;;;4982261;28;20201;-80
2022/10/11 06:11:31;;;;;;;13.67;7.87;;;9.00;99.90;;;;;;4982925;28;20216;-80
2022/10/11 06:14:00;;;;;;;8.80;7.20;;;9.10;99.90;;;;;;4970675;28;20219;-80
2022/10/11 06:16:29;;;;;;;12.50;8.43;;;9.10;99.90;;;;;;4970040;28;20244;-80
2022/10/11 06:18:57;;;;;;;18.20;8.80;;;9.10;99.90;;;;;;4992943;28;20220;-80
2022/10/11 06:21:44;;;;;;;11.37;8.17;;;9.20;99.90;;;;;;4984607;28;20733;-79
2022/10/11 06:24:11;;;;;;;11.60;8.17;;;9.00;99.90;;;;;;4968882;28;20240;-80
2022/10/11 06:26:39;;;;;;;13.83;8.53;;;8.90;99.90;;;;;;4966329;28;20204;-79
2022/10/11 06:29:11;;;;;;;9.73;7.80;;;8.90;99.90;;;;;;4983897;28;20208;-79
2022/10/11 06:31:39;;;;;;;9.40;7.40;;;8.90;99.90;;;;;;4969514;28;20193;-80
2022/10/11 06:34:06;;;;;;;9.37;6.53;;;9.00;99.90;;;;;;4982830;28;20229;-80
2022/10/11 06:36:34;;;;;;;9.07;7.30;;;9.10;99.90;;;;;;4970503;28;20204;-80
2022/10/11 06:39:11;;;;;;;11.60;8.03;;;9.00;99.90;;;;;;4970704;28;20205;-80
2022/10/11 06:41:39;;;;;;;10.90;9.17;;;9.00;99.90;;;;;;4973363;28;20671;-80
2022/10/11 06:44:10;;;;;;;10.10;8.07;;;9.10;99.90;;;;;;4983614;28;20239;-80
2022/10/11 06:46:38;;;;;;;13.27;8.37;;;9.20;99.90;;;;;;4986863;28;20204;-80
2022/10/11 06:49:05;;;;;;;12.90;9.87;;;9.30;99.90;;;;;;4998995;28;20207;-80
2022/10/11 06:51:34;;;;;;;16.20;10.93;;;9.40;99.90;;;;;;4988631;28;20602;-80
2022/10/11 06:54:02;;;;;;;14.30;9.73;;;9.50;99.90;;;;;;4972130;28;20213;-80
2022/10/11 06:56:31;;;;;;;11.57;8.90;;;9.60;99.90;;;;;;4992108;28;20205;-80
2022/10/11 06:59:02;;;;;;;14.20;9.23;;;9.70;99.90;;;;;;4987140;28;20193;-80
2022/10/11 07:01:29;;;;;;;12.47;9.67;;;9.90;99.90;;;;;;4990856;28;20212;-80
2022/10/11 07:03:59;;;;;;;15.13;10.10;;;10.00;99.90;;;;;;4968870;28;20216;-80
2022/10/11 07:06:28;;;;;;;16.23;10.33;;;10.10;99.90;;;;;;4981237;28;20208;-80
2022/10/11 07:08:58;;;;;;;17.03;10.23;;;10.30;99.90;;;;;;4991546;28;20212;-81
2022/10/11 07:11:28;;;;;;;15.80;10.20;;;10.40;99.90;;;;;;4983454;28;20208;-80
2022/10/11 07:13:58;;;;;;;11.87;9.13;;;10.40;99.90;;;;;;4964051;28;20217;-80
2022/10/11 07:16:28;;;;;;;15.73;10.70;;;10.50;99.90;;;;;;4971532;28;20200;-79
2022/10/11 07:18:57;;;;;;;17.17;11.47;;;10.60;99.90;;;;;;4990333;28;20205;-79
2022/10/11 07:21:34;;;;;;;21.83;12.27;;;10.60;99.90;;;;;;4975249;28;20214;-79
2022/10/11 07:24:03;;;;;;;24.17;13.17;;;10.60;99.90;;;;;;4982683;28;20232;-79
2022/10/11 07:26:32;;;;;;;23.87;12.83;;;10.70;99.90;;;;;;4976833;28;20189;-80
2022/10/11 07:29:00;;;;;;;21.63;13.20;;;10.80;99.90;;;;;;4975809;28;20196;-79
2022/10/11 07:31:28;;;;;;;21.20;12.27;;;10.80;99.90;;;;;;4989936;28;20227;-80
2022/10/11 07:33:55;;;;;;;19.00;12.83;;;10.80;99.90;;;;;;4992110;28;20325;-79
2022/10/11 07:36:23;;;;;;;21.03;13.47;;;10.90;99.90;;;;;;4972273;28;20201;-79
2022/10/11 07:38:50;;;;;;;25.90;13.87;;;11.10;99.90;;;;;;4975697;28;20192;-79
2022/10/11 07:41:18;;;;;;;22.20;13.83;;;11.10;99.90;;;;;;4973134;28;20212;-80
2022/10/11 07:43:46;;;;;;;22.17;13.10;;;10.90;99.90;;;;;;4983390;28;20721;-80
2022/10/11 07:46:15;;;;;;;23.83;13.70;;;10.80;99.90;;;;;;4972153;28;20212;-80
2022/10/11 07:48:43;;;;;;;18.43;12.40;;;10.80;99.90;;;;;;4991603;28;20220;-80
2022/10/11 07:51:12;;;;;;;19.60;13.70;;;11.10;99.90;;;;;;4992488;28;20232;-80
2022/10/11 07:53:41;;;;;;;17.60;12.97;;;11.30;99.90;;;;;;4991923;28;20590;-80
2022/10/11 07:56:11;;;;;;;17.58;13.10;;;11.50;99.90;;;;;;4992069;28;20227;-80
2022/10/11 07:58:39;;;;;;;18.45;11.98;;;11.50;99.90;;;;;;4976669;28;20220;-80
2022/10/11 08:01:10;;;;;;;17.63;12.20;;;11.60;99.90;;;;;;4977230;28;20185;-80
2022/10/11 08:03:39;;;;;;;21.15;12.57;;;11.60;99.90;;;;;;4974548;28;20237;-80
2022/10/11 08:06:08;;;;;;;18.52;12.50;;;11.50;99.90;;;;;;4975610;28;20211;-80
2022/10/11 08:08:36;;;;;;;15.23;12.15;;;11.70;99.90;;;;;;4975802;28;20209;-80
2022/10/11 08:11:04;;;;;;;19.50;12.40;;;11.80;99.90;;;;;;4970055;28;20209;-80
2022/10/11 08:13:32;;;;;;;20.50;13.00;;;11.70;99.90;;;;;;4989999;28;20228;-80
2022/10/11 08:16:00;;;;;;;18.02;11.85;;;11.70;99.90;;;;;;4976148;28;20208;-80
2022/10/11 08:18:27;;;;;;;21.90;13.65;;;11.40;99.90;;;;;;4975551;28;20204;-80
2022/10/11 08:20:58;;;;;;;20.75;12.85;;;11.50;99.90;;;;;;4988072;28;20212;-80
2022/10/11 08:23:26;;;;;;;20.52;12.27;;;11.70;99.90;;;;;;4967916;28;20235;-80
2022/10/11 08:25:56;;;;;;;18.23;12.17;;;11.60;99.90;;;;;;4984607;28;20256;-80
2022/10/11 08:29:05;;;;;;;19.17;11.23;;;11.80;99.90;;;;;;4974315;28;20204;-80
2022/10/11 08:31:34;;;;;;;22.27;12.50;;;12.00;99.90;;;;;;4992031;28;20681;-80
2022/10/11 08:34:04;;;;;;;17.42;12.43;;;12.10;99.90;;;;;;5028534;23;20246;-77
2022/10/11 08:36:36;;;;;;;16.88;11.05;;;12.00;99.90;;;;;;5031584;28;20203;-76
2022/10/11 08:39:17;;;;;;;17.63;11.38;;;12.20;99.90;;;;;;5015637;28;20191;-77
2022/10/11 08:41:49;;;;;;;19.77;12.30;;;12.30;99.90;;;;;;5003550;28;20218;-77
2022/10/11 08:44:28;;;;;;;21.45;11.80;;;12.30;99.90;;;;;;5032163;28;20218;-76
2022/10/11 08:47:03;;;;;;;15.43;11.48;;;12.30;99.90;;;;;;5048570;28;20202;-77
2022/10/11 08:49:33;;;;;;;19.20;11.30;;;12.30;99.90;;;;;;5050177;28;20213;-77
2022/10/11 08:52:06;;;;;;;16.38;9.80;;;12.30;99.90;;;;;;5034139;28;20667;-74
2022/10/11 08:54:43;;;;;;;20.17;11.23;;;12.30;99.90;;;;;;5047595;28;20691;-75
2022/10/11 08:57:35;;;;;;;18.98;10.05;;;12.50;99.90;;;;;;5052087;28;20201;-75
2022/10/11 09:00:23;;;;;;;16.65;10.45;;;12.60;99.90;;;;;;5039680;28;20206;-75
2022/10/11 09:02:57;;;;;;;18.67;9.90;;;12.80;99.90;;;;;;5044665;28;20190;-74
2022/10/11 09:05:32;;;;;;;15.75;9.07;;;13.00;99.90;;;;;;5045483;28;20210;-74
2022/10/11 09:08:10;;;;;;;18.13;9.85;;;13.10;99.90;;;;;;5025518;28;20202;-75
2022/10/11 09:10:55;;;;;;;16.05;8.90;;;13.20;99.90;;;;;;5048565;28;20209;-74
2022/10/11 09:13:52;;;;;;;14.35;7.65;;;13.40;99.90;;;;;;5023465;28;20693;-75
2022/10/11 09:16:28;;;;;;;16.10;8.13;;;13.50;99.90;;;;;;5025540;28;20190;-74
2022/10/11 09:19:18;;;;;;;11.02;6.95;;;13.60;99.90;;;;;;5049005;28;20194;-75
2022/10/11 09:21:51;;;;;;;18.70;8.35;;;13.50;99.90;;;;;;5021949;28;20198;-74
2022/10/11 09:24:37;;;;;;;11.75;7.07;;;13.50;99.90;;;;;;5030534;28;20718;-74
2022/10/11 09:27:18;;;;;;;12.70;8.07;;;13.70;99.90;;;;;;5025281;28;20209;-74
2022/10/11 09:29:54;;;;;;;12.95;5.85;;;13.80;99.90;;;;;;5041736;28;20199;-74
2022/10/11 09:32:22;;;;;;;10.45;5.07;;;13.90;99.90;;;;;;5028745;28;20199;-75
2022/10/11 09:34:55;;;;;;;11.95;5.78;;;14.00;99.90;;;;;;5028635;28;20233;-74
2022/10/11 09:37:27;;;;;;;18.15;5.93;;;14.10;99.90;;;;;;5049498;28;20193;-75
2022/10/11 09:40:03;;;;;;;15.20;6.18;;;14.10;99.90;;;;;;5043876;28;20190;-74
2022/10/11 09:42:33;;;;;;;12.48;6.47;;;14.20;99.90;;;;;;5051311;28;20190;-75
2022/10/11 09:45:01;;;;;;;11.38;5.45;;;14.30;99.90;;;;;;5027803;28;20222;-75
2022/10/11 09:47:31;;;;;;;10.27;5.63;;;14.40;99.90;;;;;;5033209;28;20653;-75
2022/10/11 09:50:02;;;;;;;13.20;6.05;;;14.50;99.90;;;;;;5032814;28;20206;-75
2022/10/11 09:52:29;;;;;;;12.23;4.88;;;14.70;99.90;;;;;;5047352;28;20194;-74
2022/10/11 09:55:00;;;;;;;8.63;4.40;;;14.70;99.90;;;;;;5031601;28;20229;-77
2022/10/11 09:57:29;;;;;;;7.32;3.33;;;14.80;99.90;;;;;;5032107;28;20194;-77
2022/10/11 10:00:04;;;;;;;7.45;2.75;;;15.00;99.90;;;;;;5042093;28;20202;-77
2022/10/11 10:02:43;;;;;;;8.45;2.63;;;15.10;99.90;;;;;;5055505;28;20202;-77
2022/10/11 10:05:18;;;;;;;10.88;2.97;;;15.00;99.90;;;;;;5044795;28;20213;-77
2022/10/11 10:08:04;;;;;;;6.97;2.33;;;15.10;99.90;;;;;;5024231;28;20198;-77
2022/10/11 10:10:38;;;;;;;8.25;3.15;;;15.00;99.80;;;;;;5023750;28;20202;-75
2022/10/11 10:13:17;;;;;;;9.93;2.90;;;15.10;99.80;;;;;;5040911;28;20232;-76
2022/10/11 10:15:47;;;;;;;6.40;2.53;;;15.20;99.70;;;;;;5051112;28;20183;-75
2022/10/11 10:18:32;;;;;;;9.90;2.25;;;15.30;98.60;;;;;;5032497;28;20567;-75
2022/10/11 10:21:00;;;;;;;6.30;2.25;;;15.10;97.80;;;;;;5028528;28;20198;-75
2022/10/11 10:23:29;;;;;;;10.60;2.72;;;15.20;97.80;;;;;;5031955;28;20250;-75
2022/10/11 10:26:17;;;;;;;7.10;2.65;;;15.30;97.30;;;;;;5047112;28;20206;-75
2022/10/11 10:29:17;;;;;;;6.47;2.65;;;15.20;97.00;;;;;;5028423;28;20206;-74
2022/10/11 10:31:53;;;;;;;5.75;2.40;;;15.20;97.50;;;;;;5029031;28;20662;-74
2022/10/11 10:34:26;;;;;;;9.73;2.42;;;15.40;96.90;;;;;;5029775;28;20714;-75
2022/10/11 10:36:57;;;;;;;8.10;3.35;;;15.50;95.80;;;;;;5026122;28;20202;-75
2022/10/11 10:39:31;;;;;;;6.43;2.45;;;15.60;95.80;;;;;;5029448;28;20199;-74
2022/10/11 10:42:03;;;;;;;4.53;2.10;;;15.80;95.20;;;;;;5027200;28;20205;-74
2022/10/11 10:44:30;;;;;;;5.50;2.20;;;15.60;95.40;;;;;;5043968;28;20238;-75
2022/10/11 10:47:09;;;;;;;5.15;2.53;;;15.70;95.50;;;;;;5025069;28;20234;-75
2022/10/11 10:49:43;;;;;;;9.25;2.67;;;15.70;94.90;;;;;;5023150;28;20209;-75
2022/10/11 10:52:46;;;;;;;9.02;1.92;;;15.80;95.00;;;;;;5029760;28;20206;-75
2022/10/11 10:55:23;;;;;;;5.30;2.10;;;15.90;94.10;;;;;;5045115;28;20220;-75
2022/10/11 10:58:04;;;;;;;13.98;2.50;;;16.30;93.60;;;;;;5020311;28;20209;-74
2022/10/11 11:00:39;;;;;;;6.28;2.03;;;16.20;92.10;;;;;;5022491;28;20198;-74
2022/10/11 11:03:14;;;;;;;10.05;3.03;;;16.30;92.40;;;;;;5029946;28;20218;-74
2022/10/11 11:05:48;;;;;;;5.45;2.03;;;16.50;92.10;;;;;;5029013;28;20216;-74
2022/10/11 11:08:22;;;;;;;7.13;2.58;;;16.70;90.80;;;;;;5019983;28;20751;-74
2022/10/11 11:10:59;;;;;;;8.07;2.30;;;17.00;91.20;;;;;;5045920;28;20217;-75
2022/10/11 11:13:35;;;;;;;7.43;2.10;;;17.30;90.30;;;;;;5026637;28;20237;-74
2022/10/11 11:16:12;;;;;;;4.55;1.95;;;17.80;89.80;;;;;;5040646;28;20194;-74
2022/10/11 11:18:45;;;;;;;9.13;2.20;;;18.10;88.00;;;;;;5022634;28;20210;-74
2022/10/11 11:21:29;;;;;;;5.63;1.95;;;18.30;86.40;;;;;;5026933;28;20672;-74
2022/10/11 11:24:07;;;;;;;5.65;2.20;;;18.70;85.30;;;;;;5028075;28;20652;-75
2022/10/11 11:26:44;;;;;;;6.32;2.60;;;17.80;87.20;;;;;;5030515;28;20225;-75
2022/10/11 11:29:24;;;;;;;7.82;1.95;;;18.00;88.90;;;;;;5047758;28;20670;-75
2022/10/11 11:32:08;;;;;;;6.38;2.00;;;17.50;89.60;;;;;;5025861;28;20198;-75
2022/10/11 11:34:41;;;;;;;6.07;1.90;;;18.10;88.10;;;;;;5042467;28;20589;-74
2022/10/11 11:37:19;;;;;;;6.90;2.42;;;18.70;85.40;;;;;;5036987;28;20217;-74
2022/10/11 11:39:50;;;;;;;5.93;2.22;;;18.20;82.50;;;;;;5045016;28;20213;-75
2022/10/11 11:42:23;;;;;;;8.15;2.28;;;17.60;86.40;;;;;;5048132;28;20552;-75
2022/10/11 11:44:52;;;;;;;7.70;3.47;;;17.40;83.70;;;;;;5049280;28;20584;-75
2022/10/11 11:47:24;;;;;;;5.50;2.70;;;17.00;87.40;;;;;;5027477;28;20229;-74
2022/10/11 11:49:57;;;;;;;3.55;1.70;;;17.30;88.00;;;;;;5041334;28;20210;-74
2022/10/11 11:52:29;;;;;;;4.03;2.00;;;18.00;84.70;;;;;;5040669;28;20218;-75
2022/10/11 11:55:08;;;;;;;5.50;1.88;;;17.80;81.90;;;;;;5044065;28;20245;-75
2022/10/11 11:57:49;;;;;;;8.90;1.55;;;17.70;80.90;;;;;;5045538;28;20198;-76
2022/10/11 12:00:23;;;;;;;5.07;1.67;;;18.30;79.70;;;;;;5041822;28;20281;-75
2022/10/11 12:02:53;;;;;;;5.70;2.00;;;18.50;78.40;;;;;;5021439;28;20571;-75
2022/10/11 12:05:25;;;;;;;5.70;1.70;;;18.20;77.70;;;;;;5026305;28;20715;-75
2022/10/11 12:07:56;;;;;;;4.90;1.50;;;18.00;74.30;;;;;;5039674;28;20226;-74
2022/10/11 12:10:34;;;;;;;6.18;1.52;;;17.20;77.50;;;;;;5047726;28;20687;-75
2022/10/11 12:13:18;;;;;;;4.18;1.48;;;17.20;79.60;;;;;;5034575;28;20213;-74
2022/10/11 12:16:09;;;;;;;5.75;1.50;;;17.30;77.10;;;;;;5033642;28;20194;-74
2022/10/11 12:18:48;;;;;;;7.53;1.58;;;17.20;78.30;;;;;;5029562;28;20214;-74
2022/10/11 12:21:21;;;;;;;4.57;1.48;;;18.20;75.50;;;;;;5043464;28;20538;-75
2022/10/11 12:23:50;;;;;;;5.13;1.40;;;18.90;72.70;;;;;;5049368;28;20210;-75
2022/10/11 12:26:35;;;;;;;9.10;1.60;;;19.90;69.20;;;;;;5032580;28;20236;-74
2022/10/11 12:29:20;;;;;;;3.85;1.25;;;20.10;65.90;;;;;;5034749;28;20221;-75
2022/10/11 12:31:50;;;;;;;4.63;1.45;;;20.20;64.10;;;;;;5034077;28;20190;-77
2022/10/11 12:34:36;;;;;;;6.32;2.10;;;20.60;61.60;;;;;;5051554;28;20218;-77
2022/10/11 12:37:41;;;;;;;3.97;1.50;;;19.50;65.30;;;;;;5034437;28;20205;-77
2022/10/11 12:40:33;;;;;;;3.17;1.23;;;20.10;61.80;;;;;;5052544;28;20182;-77
2022/10/11 12:43:22;;;;;;;4.80;1.40;;;20.90;62.70;;;;;;5034407;28;20210;-77
2022/10/11 12:45:50;;;;;;;4.78;1.40;;;21.10;57.80;;;;;;5034809;28;20206;-77
2022/10/11 12:48:40;;;;;;;4.10;1.88;;;22.20;56.50;;;;;;5032231;28;20229;-77
2022/10/11 12:51:28;;;;;;;4.28;1.33;;;22.50;53.60;;;;;;5044170;28;20198;-75
2022/10/11 12:54:21;;;;;;;3.95;1.25;;;22.40;52.10;;;;;;5046033;28;20210;-75
2022/10/11 12:56:57;;;;;;;4.97;1.65;;;21.80;53.30;;;;;;5052508;28;20197;-75
2022/10/11 12:59:25;;;;;;;5.25;1.80;;;22.30;51.60;;;;;;5050922;28;20194;-75
2022/10/11 13:01:55;;;;;;;4.53;1.65;;;22.30;50.60;;;;;;5033184;28;20195;-75
2022/10/11 13:04:27;;;;;;;5.47;2.00;;;22.00;52.30;;;;;;5033670;28;20226;-75
2022/10/11 13:06:57;;;;;;;5.20;1.50;;;22.30;52.60;;;;;;5034149;28;20206;-76